Aviation Digital Data Service (ADDS)

Output produced by METARs form (1554 UTC 20 March 2019)
found at http://www.aviationweather.gov/metar/data/
 
Forecast for: MDSD (CAUCEDO/DE LAS , DO)
Text: TAF MDSD 201000Z 2012/2112 06006KT 9999 FEW018 SCT300
Forecast period: 1200 to 1400 UTC 20 March 2019
Forecast type: FROM: standard forecast or significant change
Winds: from the ENE (60 degrees) at 7 MPH (6 knots; 3.1 m/s)
Visibility: 6 or more miles 10+ km)
Ceiling: at least 12,000 feet AGL
Clouds: few clouds at 1800 feet AGL
scattered clouds at 30000 feet AGL
Weather: no significant weather forecast for this period
Text: BECMG 2014/2016 13011KT
Forecast period: 1400 UTC 20 March 2019 to 1200 UTC 21 March 2019
Forecast type: BECOMING: Conditions expected to become as follows by 1600 UTC 20 March 2019
Winds: from the SE (130 degrees) at 13 MPH (11 knots; 5.7 m/s)
Visibility: 6 or more miles 10+ km)
Ceiling: at least 12,000 feet AGL
Clouds: few clouds at 1800 feet AGL
scattered clouds at 30000 feet AGL
Weather: no significant weather forecast for this period